Time;durP1;ratioP1;P1;durP2;ratioP2;P2;SDS_P1;SDS_P2;PMS_P1;PMS_P2;Temp;Humidity;BMP_temperature;BMP_pressure;BME280_temperature;BME280_humidity;BME280_pressure;Samples;Min_cycle;Max_cycle;Signal;HPM_P1;HPM_P2
2021/09/22 00:01:34;;;;;;;12.20;7.70;;;15.90;26.00;;;;;;5113792;28;20691;-77
2021/09/22 00:04:00;;;;;;;9.57;7.37;;;15.90;28.40;;;;;;5113754;28;20175;-77
2021/09/22 00:06:25;;;;;;;10.43;7.70;;;15.90;26.70;;;;;;5112458;28;20547;-78
2021/09/22 00:08:52;;;;;;;9.77;7.27;;;15.80;28.70;;;;;;5095198;28;20181;-76
2021/09/22 00:11:18;;;;;;;10.37;7.90;;;15.60;30.90;;;;;;5113534;28;20167;-76
2021/09/22 00:13:44;;;;;;;10.07;7.60;;;15.60;33.90;;;;;;5113729;28;20213;-76
2021/09/22 00:16:09;;;;;;;13.10;8.20;;;15.50;33.80;;;;;;5113104;28;20167;-76
2021/09/22 00:18:35;;;;;;;10.07;7.90;;;15.30;37.70;;;;;;5113254;28;20183;-76
2021/09/22 00:21:01;;;;;;;9.93;7.53;;;15.30;40.30;;;;;;5113434;28;20178;-76
2021/09/22 00:23:27;;;;;;;11.53;7.60;;;15.20;41.60;;;;;;5113284;28;20666;-76
2021/09/22 00:25:52;;;;;;;9.87;8.00;;;15.20;43.80;;;;;;5113230;28;20165;-77
2021/09/22 00:28:18;;;;;;;13.57;8.03;;;15.30;43.10;;;;;;5113254;28;20718;-78
2021/09/22 00:30:44;;;;;;;11.63;8.07;;;15.40;39.40;;;;;;5113110;28;20184;-76
2021/09/22 00:33:10;;;;;;;14.47;8.07;;;15.40;35.90;;;;;;5113486;28;20641;-77
2021/09/22 00:35:36;;;;;;;11.50;7.97;;;15.20;39.60;;;;;;5113135;28;20178;-76
2021/09/22 00:38:02;;;;;;;12.67;8.23;;;15.10;41.70;;;;;;5113225;28;20175;-75
2021/09/22 00:40:28;;;;;;;10.90;8.00;;;14.90;45.30;;;;;;5113144;28;20625;-77
2021/09/22 00:42:54;;;;;;;9.53;7.73;;;14.80;50.00;;;;;;5113408;28;20232;-75
2021/09/22 00:45:21;;;;;;;11.03;7.90;;;14.70;53.40;;;;;;5113612;28;20220;-75
2021/09/22 00:47:47;;;;;;;11.67;8.30;;;14.60;57.10;;;;;;5094223;28;20186;-75
2021/09/22 00:50:13;;;;;;;10.47;7.60;;;14.50;59.30;;;;;;5112715;28;20229;-76
2021/09/22 00:52:40;;;;;;;9.97;8.53;;;14.50;59.30;;;;;;5112879;28;20167;-77
2021/09/22 00:55:08;;;;;;;12.07;8.33;;;14.50;60.40;;;;;;5112560;28;20177;-76
2021/09/22 00:57:51;;;;;;;10.87;8.50;;;14.50;61.50;;;;;;5112714;28;20224;-76
2021/09/22 01:00:19;;;;;;;11.57;8.20;;;14.60;60.00;;;;;;5113272;28;20162;-76
2021/09/22 01:02:47;;;;;;;12.30;8.57;;;14.80;58.20;;;;;;5112527;28;20171;-77
2021/09/22 01:05:24;;;;;;;11.43;8.67;;;14.90;56.00;;;;;;5094646;28;20255;-77
2021/09/22 01:07:51;;;;;;;13.57;8.57;;;15.00;52.60;;;;;;5116085;28;20747;-76
2021/09/22 01:10:17;;;;;;;10.77;8.43;;;15.10;50.30;;;;;;5116181;28;20158;-77
2021/09/22 01:12:44;;;;;;;10.90;7.80;;;15.00;51.00;;;;;;5098458;28;20635;-76
2021/09/22 01:15:23;;;;;;;12.03;8.30;;;15.10;49.10;;;;;;5116768;28;20196;-76
2021/09/22 01:17:50;;;;;;;11.27;8.17;;;15.20;46.40;;;;;;5116386;28;20166;-76
2021/09/22 01:20:16;;;;;;;9.03;8.00;;;15.10;46.60;;;;;;5116121;28;20528;-76
2021/09/22 01:22:42;;;;;;;10.13;7.47;;;15.10;46.50;;;;;;5116197;28;20170;-76
2021/09/22 01:25:11;;;;;;;13.07;8.20;;;14.90;49.20;;;;;;5116731;28;20743;-76
2021/09/22 01:27:53;;;;;;;10.63;8.33;;;14.90;49.40;;;;;;5115359;28;20224;-76
2021/09/22 01:30:19;;;;;;;9.20;7.73;;;15.10;48.00;;;;;;5116620;28;20628;-76
2021/09/22 01:32:58;;;;;;;10.50;8.47;;;15.10;46.20;;;;;;5115300;28;20277;-77
2021/09/22 01:35:24;;;;;;;10.73;7.83;;;15.20;45.40;;;;;;5116065;28;20188;-76
2021/09/22 01:37:51;;;;;;;9.17;7.93;;;15.00;45.90;;;;;;5116195;28;20171;-76
2021/09/22 01:40:18;;;;;;;11.97;8.27;;;14.90;48.30;;;;;;5116354;28;20177;-76
2021/09/22 01:42:44;;;;;;;9.77;7.63;;;15.00;48.00;;;;;;5097706;28;20202;-76
2021/09/22 01:45:13;;;;;;;9.50;7.53;;;14.90;49.50;;;;;;5116028;28;20199;-76
2021/09/22 01:47:39;;;;;;;8.90;7.43;;;15.00;48.90;;;;;;5115430;28;20248;-76
2021/09/22 01:50:25;;;;;;;10.30;8.13;;;14.90;48.90;;;;;;5115887;28;20166;-77
2021/09/22 01:52:52;;;;;;;10.60;7.77;;;14.80;51.20;;;;;;5115868;28;20191;-77
2021/09/22 01:55:20;;;;;;;9.50;7.33;;;14.70;52.20;;;;;;5115912;28;20171;-76
2021/09/22 01:57:47;;;;;;;9.70;8.00;;;14.90;50.50;;;;;;5115604;28;20155;-77
2021/09/22 02:00:13;;;;;;;10.83;7.63;;;14.90;50.40;;;;;;5097458;28;20207;-76
2021/09/22 02:02:39;;;;;;;9.87;7.37;;;14.90;50.00;;;;;;5115372;28;20166;-78
2021/09/22 02:05:05;;;;;;;10.00;8.13;;;14.90;51.50;;;;;;5114830;28;20254;-78
2021/09/22 02:07:32;;;;;;;9.17;8.20;;;14.90;49.50;;;;;;5115374;28;20175;-76
2021/09/22 02:09:59;;;;;;;10.13;7.07;;;14.90;49.50;;;;;;5115649;28;20174;-75
2021/09/22 02:12:26;;;;;;;10.17;7.17;;;14.90;49.00;;;;;;5115497;28;20649;-76
2021/09/22 02:14:52;;;;;;;9.87;8.00;;;14.80;49.90;;;;;;5115413;28;20727;-77
2021/09/22 02:17:18;;;;;;;10.33;7.63;;;14.80;51.10;;;;;;5114392;28;20250;-78
2021/09/22 02:19:44;;;;;;;8.77;7.67;;;14.80;51.70;;;;;;5114393;28;20198;-77
2021/09/22 02:22:09;;;;;;;11.93;8.00;;;14.80;52.00;;;;;;5115510;28;20245;-78
2021/09/22 02:24:37;;;;;;;12.13;8.17;;;14.80;51.30;;;;;;5115265;28;20179;-77
2021/09/22 02:27:04;;;;;;;8.90;7.67;;;14.80;51.50;;;;;;5120670;28;20245;-77
2021/09/22 02:29:29;;;;;;;10.60;8.10;;;14.70;52.50;;;;;;5117789;28;20657;-77
2021/09/22 02:31:55;;;;;;;10.23;8.13;;;14.80;51.80;;;;;;5115020;28;20166;-77
2021/09/22 02:34:21;;;;;;;12.73;7.63;;;14.70;52.00;;;;;;5114450;28;20643;-77
2021/09/22 02:36:46;;;;;;;12.50;7.37;;;14.80;50.80;;;;;;5114375;28;20190;-76
2021/09/22 02:39:12;;;;;;;10.40;7.60;;;14.70;52.40;;;;;;5096675;28;20171;-77
2021/09/22 02:41:38;;;;;;;11.23;7.60;;;14.70;52.60;;;;;;5096346;28;20171;-77
2021/09/22 02:44:04;;;;;;;9.30;7.03;;;14.80;52.60;;;;;;5115392;28;20163;-77
2021/09/22 02:46:29;;;;;;;12.93;7.90;;;14.70;53.00;;;;;;5120142;28;20506;-76
2021/09/22 02:48:55;;;;;;;10.90;8.10;;;14.70;53.30;;;;;;5119287;28;20166;-76
2021/09/22 02:51:21;;;;;;;11.67;7.40;;;14.70;53.30;;;;;;5115058;28;20669;-77
2021/09/22 02:53:47;;;;;;;9.27;7.33;;;14.50;56.70;;;;;;5114241;28;20208;-78
2021/09/22 02:56:12;;;;;;;8.97;7.60;;;14.50;58.90;;;;;;5096506;28;20171;-76
2021/09/22 02:58:38;;;;;;;9.27;7.57;;;14.40;60.10;;;;;;5114029;28;20504;-77
2021/09/22 03:01:04;;;;;;;9.37;6.90;;;14.40;60.40;;;;;;5114572;28;20173;-76
2021/09/22 03:03:31;;;;;;;8.00;6.93;;;14.50;59.70;;;;;;5114436;28;20166;-77
2021/09/22 03:05:57;;;;;;;8.27;7.07;;;14.50;59.20;;;;;;5113986;28;20552;-77
2021/09/22 03:08:23;;;;;;;11.03;7.43;;;14.40;59.10;;;;;;5115087;28;20213;-78
2021/09/22 03:10:54;;;;;;;10.03;7.07;;;14.50;59.00;;;;;;5114689;28;20170;-77
2021/09/22 03:13:20;;;;;;;10.37;6.87;;;14.50;58.20;;;;;;5115178;28;20657;-78
2021/09/22 03:15:49;;;;;;;9.73;6.90;;;14.60;57.20;;;;;;5114833;28;20228;-77
2021/09/22 03:18:14;;;;;;;11.10;7.70;;;14.60;55.40;;;;;;5114526;28;20184;-77
2021/09/22 03:20:40;;;;;;;9.67;7.73;;;14.40;56.40;;;;;;5114077;28;20254;-77
2021/09/22 03:23:06;;;;;;;9.60;7.37;;;14.40;58.90;;;;;;5114884;28;20164;-77
2021/09/22 03:25:32;;;;;;;9.17;7.53;;;14.20;61.40;;;;;;5114867;28;20185;-76
2021/09/22 03:27:57;;;;;;;12.30;7.70;;;14.10;66.40;;;;;;5114239;28;20167;-76
2021/09/22 03:30:23;;;;;;;12.20;7.40;;;14.10;65.70;;;;;;5114323;28;20199;-77
2021/09/22 03:32:49;;;;;;;10.13;7.37;;;14.10;64.80;;;;;;5113637;28;20539;-77
2021/09/22 03:35:14;;;;;;;9.10;7.10;;;14.20;61.20;;;;;;5113269;28;20684;-77
2021/09/22 03:37:40;;;;;;;10.30;7.50;;;14.20;59.70;;;;;;5113964;28;20215;-78
2021/09/22 03:40:07;;;;;;;8.37;7.00;;;14.20;60.20;;;;;;5113617;28;20659;-77
2021/09/22 03:42:33;;;;;;;10.63;7.20;;;14.20;59.60;;;;;;5095369;28;20171;-76
2021/09/22 03:44:59;;;;;;;10.20;7.30;;;14.20;60.10;;;;;;5112860;28;20176;-78
2021/09/22 03:47:24;;;;;;;10.33;7.27;;;14.30;59.40;;;;;;5113785;28;20185;-77
2021/09/22 03:49:50;;;;;;;7.80;6.83;;;14.20;59.10;;;;;;5113332;28;20662;-77
2021/09/22 03:52:16;;;;;;;9.70;7.30;;;14.20;59.40;;;;;;5112898;28;20646;-78
2021/09/22 03:54:41;;;;;;;10.73;8.00;;;14.20;59.80;;;;;;5113851;28;20630;-79
2021/09/22 03:57:07;;;;;;;10.20;7.60;;;14.00;60.30;;;;;;5112525;28;20254;-77
2021/09/22 03:59:33;;;;;;;9.43;7.07;;;13.90;62.10;;;;;;5113375;28;20695;-76
2021/09/22 04:01:58;;;;;;;11.17;7.37;;;14.00;64.80;;;;;;5095320;28;20171;-76
2021/09/22 04:04:24;;;;;;;9.37;7.47;;;13.90;66.10;;;;;;5112141;28;20251;-76
2021/09/22 04:06:50;;;;;;;10.67;8.03;;;13.90;67.60;;;;;;5112727;28;20624;-77
2021/09/22 04:09:15;;;;;;;12.93;8.40;;;14.00;66.10;;;;;;5112620;28;20177;-78
2021/09/22 04:11:42;;;;;;;10.63;8.30;;;14.00;65.70;;;;;;5112819;28;20524;-78
2021/09/22 04:14:07;;;;;;;11.90;8.13;;;14.00;65.80;;;;;;5094270;28;20689;-76
2021/09/22 04:16:33;;;;;;;10.70;8.07;;;13.90;66.50;;;;;;5113408;28;20175;-76
2021/09/22 04:18:59;;;;;;;11.53;8.33;;;13.90;67.80;;;;;;5113601;28;20637;-77
2021/09/22 04:21:25;;;;;;;16.30;8.83;;;13.90;67.10;;;;;;5113509;28;20252;-77
2021/09/22 04:23:51;;;;;;;10.90;8.20;;;14.00;65.40;;;;;;5095729;28;20177;-76
2021/09/22 04:26:16;;;;;;;10.83;8.63;;;13.90;64.50;;;;;;5095194;28;20212;-77
2021/09/22 04:28:42;;;;;;;11.43;8.40;;;14.00;63.80;;;;;;5113094;28;20179;-78
2021/09/22 04:31:08;;;;;;;11.73;8.13;;;14.00;62.40;;;;;;5113091;28;20523;-77
2021/09/22 04:33:33;;;;;;;9.67;7.67;;;13.90;62.00;;;;;;5113883;28;20648;-77
2021/09/22 04:35:59;;;;;;;9.47;7.73;;;14.00;59.80;;;;;;5113829;28;20173;-76
2021/09/22 04:38:25;;;;;;;10.23;7.33;;;13.80;58.70;;;;;;5114564;28;20168;-77
2021/09/22 04:40:51;;;;;;;11.23;7.80;;;13.60;65.70;;;;;;5115001;28;20607;-77
2021/09/22 04:43:17;;;;;;;10.53;7.73;;;13.50;69.20;;;;;;5117442;28;20240;-78
2021/09/22 04:45:45;;;;;;;12.13;7.63;;;13.30;73.00;;;;;;5121014;28;20566;-77
2021/09/22 04:48:12;;;;;;;9.27;7.47;;;13.20;74.70;;;;;;5130693;28;20170;-76
2021/09/22 04:50:38;;;;;;;12.47;8.03;;;13.20;75.90;;;;;;5131416;28;20201;-77
2021/09/22 04:53:04;;;;;;;10.57;7.73;;;13.30;74.00;;;;;;5136811;28;20196;-77
2021/09/22 04:55:30;;;;;;;12.30;8.60;;;13.40;73.30;;;;;;5133837;28;20167;-76
2021/09/22 04:57:56;;;;;;;11.43;7.60;;;13.40;71.00;;;;;;5137487;28;20179;-77
2021/09/22 05:00:22;;;;;;;22.33;8.33;;;13.30;70.00;;;;;;5139276;28;20202;-77
2021/09/22 05:02:53;;;;;;;13.27;7.70;;;13.30;71.30;;;;;;5124341;28;20172;-77
2021/09/22 05:05:19;;;;;;;11.57;8.07;;;13.30;70.00;;;;;;5119400;28;20539;-77
2021/09/22 05:07:47;;;;;;;12.30;8.47;;;13.30;69.90;;;;;;5118755;28;20176;-77
2021/09/22 05:10:16;;;;;;;11.00;8.90;;;13.20;69.00;;;;;;5119119;28;20184;-77
2021/09/22 05:12:42;;;;;;;12.03;8.17;;;13.10;72.30;;;;;;5123435;28;20182;-76
2021/09/22 05:15:09;;;;;;;11.40;8.57;;;13.00;75.00;;;;;;5113089;28;20237;-78
2021/09/22 05:17:34;;;;;;;14.07;8.37;;;12.90;75.50;;;;;;5116401;28;20206;-77
2021/09/22 05:20:00;;;;;;;13.17;10.13;;;13.00;72.40;;;;;;5100775;28;20179;-77
2021/09/22 05:22:26;;;;;;;12.10;9.07;;;13.10;69.60;;;;;;5116714;28;20160;-77
2021/09/22 05:24:51;;;;;;;11.90;8.53;;;13.10;69.90;;;;;;5116533;28;20175;-76
2021/09/22 05:27:17;;;;;;;14.90;9.23;;;13.10;68.30;;;;;;5116449;28;20235;-77
2021/09/22 05:29:43;;;;;;;11.53;8.73;;;13.20;63.80;;;;;;5116997;28;20173;-78
2021/09/22 05:32:09;;;;;;;14.87;9.27;;;13.20;62.80;;;;;;5115918;28;20172;-78
2021/09/22 05:34:35;;;;;;;10.80;9.33;;;13.10;63.70;;;;;;5116516;28;20286;-77
2021/09/22 05:37:00;;;;;;;15.67;9.90;;;13.10;61.30;;;;;;5115620;28;20171;-77
2021/09/22 05:39:26;;;;;;;12.07;9.30;;;13.00;63.30;;;;;;5116130;28;20171;-76
2021/09/22 05:41:52;;;;;;;15.17;10.33;;;12.90;70.90;;;;;;5115150;28;20195;-77
2021/09/22 05:44:17;;;;;;;14.13;9.57;;;12.80;74.00;;;;;;5092025;28;20912;-79
2021/09/22 05:46:43;;;;;;;12.97;8.87;;;12.70;76.20;;;;;;5091021;28;20181;-79
2021/09/22 05:49:09;;;;;;;16.30;10.33;;;12.70;76.70;;;;;;5089215;28;20180;-78
2021/09/22 05:51:34;;;;;;;15.60;9.43;;;12.90;71.30;;;;;;5106729;28;20179;-82
2021/09/22 05:54:00;;;;;;;16.80;10.37;;;13.00;69.90;;;;;;5095085;28;20211;-80
2021/09/22 05:56:26;;;;;;;13.43;10.37;;;13.10;68.60;;;;;;5075811;28;20642;-80
2021/09/22 05:58:52;;;;;;;19.50;9.73;;;13.10;69.40;;;;;;5076316;28;20176;-80
2021/09/22 06:01:18;;;;;;;15.97;9.10;;;13.30;64.80;;;;;;5088514;28;20176;-79
2021/09/22 06:03:44;;;;;;;20.70;10.60;;;13.30;59.80;;;;;;5096637;28;20178;-80
2021/09/22 06:06:10;;;;;;;15.67;10.27;;;13.30;60.40;;;;;;5095948;28;20206;-79
2021/09/22 06:08:36;;;;;;;18.80;10.33;;;13.30;61.70;;;;;;5098574;28;20161;-77
2021/09/22 06:11:03;;;;;;;17.80;9.93;;;13.30;61.50;;;;;;5101923;28;20180;-78
2021/09/22 06:13:28;;;;;;;15.43;9.73;;;13.30;61.80;;;;;;5098535;28;20258;-79
2021/09/22 06:15:54;;;;;;;19.00;10.67;;;13.30;63.50;;;;;;5096320;28;20176;-79
2021/09/22 06:18:20;;;;;;;15.17;10.17;;;13.40;61.40;;;;;;5077516;28;20188;-80
2021/09/22 06:20:47;;;;;;;20.87;10.70;;;13.50;58.30;;;;;;5092630;28;20262;-79
2021/09/22 06:23:14;;;;;;;18.10;10.40;;;13.60;53.80;;;;;;5078313;28;20177;-79
2021/09/22 06:25:39;;;;;;;14.87;10.70;;;13.70;48.70;;;;;;5096128;28;20173;-79
2021/09/22 06:28:05;;;;;;;16.73;10.27;;;13.80;48.20;;;;;;5076996;28;20191;-79
2021/09/22 06:30:31;;;;;;;17.40;10.23;;;13.90;49.60;;;;;;5076430;28;20699;-80
2021/09/22 06:32:57;;;;;;;17.03;10.00;;;13.90;48.30;;;;;;5076166;28;20660;-79
2021/09/22 06:35:24;;;;;;;20.27;9.80;;;14.00;48.80;;;;;;5096155;28;20237;-80
2021/09/22 06:37:50;;;;;;;29.50;11.33;;;13.80;50.90;;;;;;5109963;28;20229;-77
2021/09/22 06:40:19;;;;;;;23.53;10.83;;;14.00;51.20;;;;;;5101967;28;20189;-79
2021/09/22 06:42:46;;;;;;;18.77;10.33;;;14.20;49.90;;;;;;5102255;28;20256;-80
2021/09/22 06:45:14;;;;;;;28.67;10.80;;;14.40;46.00;;;;;;5096765;28;20173;-80
2021/09/22 06:47:40;;;;;;;20.43;10.90;;;14.40;40.10;;;;;;5096102;28;20194;-78
2021/09/22 06:50:07;;;;;;;17.57;10.43;;;14.50;37.20;;;;;;5096102;28;20168;-78
2021/09/22 06:52:34;;;;;;;19.23;10.47;;;14.60;36.50;;;;;;5101247;28;20156;-78
2021/09/22 06:55:01;;;;;;;23.27;11.07;;;14.70;33.70;;;;;;5106837;28;20195;-78
2021/09/22 06:57:27;;;;;;;17.17;11.10;;;14.80;29.80;;;;;;5095920;28;20253;-77
2021/09/22 06:59:52;;;;;;;15.27;10.20;;;14.90;24.90;;;;;;5095854;28;20210;-77
2021/09/22 07:02:19;;;;;;;20.13;11.40;;;15.00;23.30;;;;;;5096185;28;20178;-77
2021/09/22 07:04:45;;;;;;;20.37;10.53;;;15.00;21.50;;;;;;5088536;28;20435;-78
2021/09/22 07:07:11;;;;;;;17.97;10.73;;;15.00;20.40;;;;;;5096073;28;20183;-77
2021/09/22 07:09:37;;;;;;;18.10;10.60;;;15.10;21.20;;;;;;5096249;28;20178;-77
2021/09/22 07:12:03;;;;;;;18.70;11.30;;;15.20;16.50;;;;;;5080163;28;20168;-78
2021/09/22 07:14:28;;;;;;;20.50;11.67;;;15.40;13.50;;;;;;5075821;28;20215;-79
2021/09/22 07:16:54;;;;;;;20.47;12.03;;;15.50;3.40;;;;;;5067123;28;20182;-79
2021/09/22 07:19:20;;;;;;;18.47;11.50;;;15.70;1.20;;;;;;5055317;28;20620;-79
2021/09/22 07:21:47;;;;;;;17.60;12.20;;;15.80;1.00;;;;;;5075144;28;20167;-78
2021/09/22 07:24:13;;;;;;;20.80;12.60;;;15.90;1.00;;;;;;5077526;28;20179;-78
2021/09/22 07:26:40;;;;;;;24.63;12.23;;;15.90;1.00;;;;;;5094616;28;20172;-79
2021/09/22 07:29:07;;;;;;;21.07;12.77;;;16.00;1.00;;;;;;5093575;28;20194;-79
2021/09/22 07:31:34;;;;;;;26.47;12.43;;;16.00;1.00;;;;;;5094434;28;20159;-78
2021/09/22 07:34:00;;;;;;;22.07;11.93;;;16.10;1.00;;;;;;5094115;28;20239;-78
2021/09/22 07:36:26;;;;;;;20.90;12.07;;;16.30;1.00;;;;;;5073807;28;20175;-79
2021/09/22 07:38:52;;;;;;;20.07;12.20;;;16.10;1.00;;;;;;5093379;28;20653;-79
2021/09/22 07:41:17;;;;;;;20.60;12.83;;;16.10;1.00;;;;;;5088861;28;20172;-77
2021/09/22 07:43:43;;;;;;;20.23;12.00;;;16.10;1.00;;;;;;5074385;28;20172;-78
2021/09/22 07:46:10;;;;;;;22.13;13.30;;;16.40;1.00;;;;;;5073953;28;20164;-84
2021/09/22 07:48:38;;;;;;;21.13;13.77;;;16.50;1.00;;;;;;5075219;28;20172;-81
2021/09/22 07:51:04;;;;;;;20.87;11.17;;;16.50;1.00;;;;;;5077429;28;20156;-82
2021/09/22 07:53:32;;;;;;;18.67;12.07;;;16.70;1.00;;;;;;5091034;28;20199;-83
2021/09/22 07:56:04;;;;;;;24.70;13.03;;;16.90;1.00;;;;;;5095313;28;20174;-87
2021/09/22 07:58:30;;;;;;;18.67;12.00;;;17.20;1.00;;;;;;5096317;28;20172;-79
2021/09/22 08:00:55;;;;;;;17.70;11.93;;;17.40;1.00;;;;;;5095578;28;20175;-82
2021/09/22 08:03:23;;;;;;;22.33;12.30;;;17.70;1.00;;;;;;5096457;28;20167;-81
2021/09/22 08:05:49;;;;;;;20.90;12.43;;;17.70;1.00;;;;;;5094090;28;20190;-82
2021/09/22 08:08:14;;;;;;;20.10;13.07;;;18.00;1.00;;;;;;5095178;28;20601;-82
2021/09/22 08:10:41;;;;;;;15.47;10.87;;;18.00;1.00;;;;;;5075522;28;20537;-83
2021/09/22 08:13:07;;;;;;;19.50;11.90;;;18.10;1.00;;;;;;5094638;28;20215;-82
2021/09/22 08:15:33;;;;;;;16.20;10.80;;;18.20;1.00;;;;;;5095063;28;20251;-83
2021/09/22 08:17:59;;;;;;;17.87;11.37;;;18.30;1.00;;;;;;5073233;28;20185;-81
2021/09/22 08:20:25;;;;;;;18.40;10.77;;;18.50;1.00;;;;;;5061459;28;20176;-84
2021/09/22 08:22:52;;;;;;;18.67;10.10;;;18.60;1.00;;;;;;5061370;28;20624;-83
2021/09/22 08:25:19;;;;;;;19.57;9.83;;;18.80;1.00;;;;;;5078395;28;20172;-82
2021/09/22 08:27:46;;;;;;;17.47;10.83;;;18.90;1.00;;;;;;5078274;28;20168;-82
2021/09/22 08:30:13;;;;;;;26.27;10.63;;;19.10;1.00;;;;;;5079005;28;20457;-82
2021/09/22 08:32:39;;;;;;;23.00;10.73;;;19.20;99.90;;;;;;5079499;28;20168;-85
2021/09/22 08:35:06;;;;;;;18.33;10.43;;;18.90;99.90;;;;;;5080241;28;20267;-90
2021/09/22 08:37:31;;;;;;;19.30;10.27;;;18.90;99.90;;;;;;5079283;28;20195;-80
2021/09/22 08:39:57;;;;;;;18.07;10.27;;;18.80;99.90;;;;;;5086115;28;20180;-81
2021/09/22 08:42:23;;;;;;;20.87;11.33;;;18.70;99.90;;;;;;5098508;28;20171;-81
2021/09/22 08:44:51;;;;;;;22.30;10.43;;;18.60;99.90;;;;;;5099247;28;20182;-80
2021/09/22 08:47:17;;;;;;;21.67;11.70;;;18.80;1.00;;;;;;5080826;28;20179;-81
2021/09/22 08:49:48;;;;;;;21.00;11.60;;;18.70;99.90;;;;;;5081346;28;20176;-79
2021/09/22 08:52:13;;;;;;;23.43;11.10;;;18.80;99.90;;;;;;5081863;28;20176;-81
2021/09/22 08:54:41;;;;;;;19.17;10.63;;;18.80;99.90;;;;;;5098056;28;20621;-81
2021/09/22 08:57:07;;;;;;;21.57;11.37;;;18.80;1.00;;;;;;5080714;28;20620;-79
2021/09/22 08:59:33;;;;;;;22.13;11.00;;;19.00;1.00;;;;;;5100852;28;20176;-83
2021/09/22 09:02:07;;;;;;;23.07;11.70;;;19.20;1.00;;;;;;5082350;28;20183;-83
2021/09/22 09:04:33;;;;;;;20.03;11.53;;;19.30;99.90;;;;;;5099267;28;20191;-82
2021/09/22 09:06:59;;;;;;;21.70;12.47;;;19.40;99.90;;;;;;5098716;28;20183;-81
2021/09/22 09:10:03;;;;;;;18.43;12.03;;;19.40;99.90;;;;;;5080460;28;20179;-80
2021/09/22 09:12:29;;;;;;;24.17;12.03;;;19.40;99.90;;;;;;5071781;28;20605;-81
2021/09/22 09:14:58;;;;;;;27.33;12.83;;;19.50;99.90;;;;;;5073662;28;20221;-81
2021/09/22 09:17:40;;;;;;;20.13;12.33;;;19.50;99.90;;;;;;5080189;28;20177;-82
2021/09/22 09:20:15;;;;;;;18.23;11.63;;;19.60;99.90;;;;;;5074465;28;20168;-84
2021/09/22 09:22:41;;;;;;;14.63;10.90;;;19.70;99.90;;;;;;5083346;28;20534;-84
2021/09/22 09:25:08;;;;;;;22.60;12.30;;;19.80;99.90;;;;;;5099697;28;20310;-81
2021/09/22 09:27:36;;;;;;;19.40;11.13;;;19.90;40.20;;;;;;5097290;28;20176;-83
2021/09/22 09:30:23;;;;;;;19.53;11.53;;;19.90;53.90;;;;;;5098697;28;20629;-83
2021/09/22 09:32:49;;;;;;;15.87;10.63;;;19.90;1.00;;;;;;5098965;28;20169;-82
2021/09/22 09:35:23;;;;;;;20.17;12.53;;;20.00;1.00;;;;;;5099590;28;20230;-83
2021/09/22 09:37:54;;;;;;;20.10;10.53;;;20.00;1.00;;;;;;5080928;28;20168;-83
2021/09/22 09:40:30;;;;;;;15.67;9.97;;;20.10;1.00;;;;;;5101840;28;20172;-84
2021/09/22 09:43:08;;;;;;;16.53;10.60;;;20.20;1.00;;;;;;5098949;28;20162;-82
2021/09/22 09:45:35;;;;;;;18.20;10.80;;;20.10;1.00;;;;;;5098961;28;20175;-83
2021/09/22 09:48:13;;;;;;;15.23;10.57;;;20.20;99.90;;;;;;5080738;28;20212;-83
2021/09/22 09:50:57;;;;;;;15.43;10.07;;;20.10;99.90;;;;;;5099663;28;20169;-83
2021/09/22 09:53:28;;;;;;;15.23;10.60;;;20.00;1.00;;;;;;5101084;28;20204;-83
2021/09/22 09:55:57;;;;;;;16.47;10.53;;;19.90;1.00;;;;;;5103328;28;20156;-81
2021/09/22 09:58:26;;;;;;;14.70;10.17;;;19.80;1.00;;;;;;5100011;28;20160;-83
2021/09/22 10:00:54;;;;;;;20.50;9.90;;;19.70;1.00;;;;;;5099393;28;20160;-83
2021/09/22 10:03:24;;;;;;;15.63;9.57;;;19.60;99.90;;;;;;5098378;28;20183;-83
2021/09/22 10:05:53;;;;;;;17.90;9.40;;;19.70;99.90;;;;;;5098650;28;20211;-83
2021/09/22 10:08:20;;;;;;;13.63;9.43;;;19.70;99.90;;;;;;5081534;28;20168;-82
2021/09/22 10:10:49;;;;;;;12.97;9.63;;;19.70;99.90;;;;;;5100294;28;20178;-81
2021/09/22 10:13:16;;;;;;;13.70;9.50;;;19.60;99.90;;;;;;5109708;28;20203;-80
2021/09/22 10:15:44;;;;;;;12.53;8.73;;;19.70;99.90;;;;;;5117626;28;20176;-81
2021/09/22 10:18:10;;;;;;;12.67;8.80;;;19.80;99.90;;;;;;5117995;28;20167;-78
2021/09/22 10:20:42;;;;;;;13.27;8.67;;;19.90;99.90;;;;;;5118191;28;20166;-84
2021/09/22 10:23:10;;;;;;;10.87;8.33;;;20.00;99.90;;;;;;5118281;28;20152;-80
2021/09/22 10:25:42;;;;;;;13.37;8.57;;;20.10;99.90;;;;;;5114897;28;20161;-80
2021/09/22 10:28:08;;;;;;;15.87;9.43;;;20.30;99.90;;;;;;5099943;28;20174;-84
2021/09/22 10:30:43;;;;;;;12.90;9.33;;;20.30;99.90;;;;;;5067635;28;20180;-79
2021/09/22 10:33:27;;;;;;;12.03;8.80;;;20.20;99.90;;;;;;5106757;28;20222;-80
2021/09/22 10:36:11;;;;;;;14.07;8.80;;;20.20;25.30;;;;;;5107694;28;20199;-80
2021/09/22 10:39:07;;;;;;;11.93;9.27;;;20.30;99.90;;;;;;5114886;28;20165;-82
2021/09/22 10:41:39;;;;;;;12.83;9.00;;;20.30;1.00;;;;;;5110807;28;20183;-81
2021/09/22 10:44:23;;;;;;;13.00;8.80;;;20.40;1.00;;;;;;5104503;28;20180;-81
2021/09/22 10:47:25;;;;;;;12.37;8.63;;;20.50;1.00;;;;;;5105974;28;20178;-81
2021/09/22 10:49:53;;;;;;;11.63;8.00;;;20.60;99.90;;;;;;5090716;28;20503;-81
2021/09/22 10:52:34;;;;;;;10.40;7.87;;;20.70;1.00;;;;;;5109792;28;20169;-81
2021/09/22 10:55:09;;;;;;;14.60;8.03;;;20.70;1.00;;;;;;5114686;28;20204;-84
2021/09/22 10:57:35;;;;;;;10.63;7.87;;;20.90;1.00;;;;;;5100035;28;20189;-80
2021/09/22 11:00:37;;;;;;;14.93;8.80;;;20.90;90.80;;;;;;5117355;28;20163;-77
2021/09/22 11:03:13;;;;;;;8.50;6.70;;;21.10;99.90;;;;;;5113399;28;20166;-82
2021/09/22 11:05:44;;;;;;;10.30;7.03;;;21.10;99.90;;;;;;5107068;28;20187;-81
2021/09/22 11:08:34;;;;;;;8.90;7.40;;;21.00;1.00;;;;;;5104750;28;20199;-82
2021/09/22 11:11:08;;;;;;;14.00;10.17;;;21.20;1.00;;;;;;5100682;28;20148;-80
2021/09/22 11:13:43;;;;;;;14.00;11.30;;;21.30;99.80;;;;;;5099928;28;20199;-84
2021/09/22 11:16:13;;;;;;;20.00;14.00;;;21.30;1.00;;;;;;5100404;28;20192;-83
2021/09/22 11:18:41;;;;;;;17.17;11.33;;;21.40;1.00;;;;;;5098583;28;20155;-83
2021/09/22 11:21:07;;;;;;;13.90;8.70;;;21.50;1.00;;;;;;5082655;28;20185;-84
2021/09/22 11:23:42;;;;;;;14.03;8.87;;;21.30;99.90;;;;;;5118066;28;20195;-84
2021/09/22 11:26:17;;;;;;;10.27;7.93;;;21.10;1.00;;;;;;5104041;28;20631;-84
2021/09/22 11:28:48;;;;;;;17.20;10.70;;;21.20;99.90;;;;;;5101630;28;20221;-84
2021/09/22 11:31:17;;;;;;;13.17;8.50;;;21.30;99.90;;;;;;5100900;28;20223;-84
2021/09/22 11:33:45;;;;;;;12.13;9.23;;;20.90;1.00;;;;;;5097873;28;20285;-83
2021/09/22 11:36:13;;;;;;;16.43;12.10;;;21.00;1.00;;;;;;5098059;28;20166;-82
2021/09/22 11:38:39;;;;;;;16.40;9.97;;;21.00;1.00;;;;;;5098330;28;20157;-83
2021/09/22 11:41:06;;;;;;;13.03;8.77;;;21.10;99.90;;;;;;5097837;28;20171;-84
2021/09/22 11:43:32;;;;;;;19.13;13.73;;;20.90;1.00;;;;;;5098266;28;20173;-85
2021/09/22 11:46:03;;;;;;;14.33;10.13;;;21.00;99.90;;;;;;5097999;28;20180;-83
2021/09/22 11:48:32;;;;;;;14.80;9.77;;;21.10;1.00;;;;;;5095759;28;20196;-81
2021/09/22 11:51:00;;;;;;;12.20;7.30;;;21.20;99.90;;;;;;5089609;28;20258;-82
2021/09/22 11:53:30;;;;;;;12.03;8.13;;;21.50;99.90;;;;;;5079780;28;20210;-80
2021/09/22 11:55:56;;;;;;;13.80;7.30;;;21.40;1.00;;;;;;5095499;28;20305;-80
2021/09/22 11:58:28;;;;;;;10.87;7.63;;;21.30;1.00;;;;;;5096283;28;20175;-80
2021/09/22 12:00:57;;;;;;;13.23;7.97;;;21.30;1.00;;;;;;5096752;28;20164;-82
2021/09/22 12:03:26;;;;;;;11.80;7.53;;;21.40;1.00;;;;;;5101590;28;20175;-81
2021/09/22 12:06:15;;;;;;;17.37;9.33;;;21.40;1.00;;;;;;5095875;28;20654;-81
2021/09/22 12:08:43;;;;;;;12.37;7.10;;;21.40;1.00;;;;;;5098813;28;20187;-81
2021/09/22 12:11:11;;;;;;;11.07;6.60;;;21.40;99.90;;;;;;5097318;28;20191;-82
2021/09/22 12:13:48;;;;;;;10.47;7.13;;;21.60;99.90;;;;;;5077954;28;20215;-80
2021/09/22 12:16:20;;;;;;;11.10;6.97;;;22.00;80.60;;;;;;5099594;28;20202;-81
2021/09/22 12:18:59;;;;;;;9.17;6.13;;;22.30;99.90;;;;;;5103668;28;20162;-82
2021/09/22 12:21:28;;;;;;;11.43;7.67;;;22.40;1.00;;;;;;5098828;28;20181;-82
2021/09/22 12:24:00;;;;;;;15.70;10.30;;;22.60;99.90;;;;;;5080550;28;20175;-77
2021/09/22 12:26:26;;;;;;;15.70;8.83;;;22.50;99.90;;;;;;5100987;28;20175;-82
2021/09/22 12:29:12;;;;;;;10.67;6.80;;;22.10;1.00;;;;;;5101952;28;20284;-82
2021/09/22 12:31:42;;;;;;;9.20;5.80;;;21.80;1.00;;;;;;5099146;28;20571;-83
2021/09/22 12:34:29;;;;;;;10.13;6.50;;;21.90;1.00;;;;;;5105279;28;20203;-84
2021/09/22 12:36:56;;;;;;;12.03;7.47;;;21.90;1.00;;;;;;5106342;28;20240;-80
2021/09/22 12:39:27;;;;;;;10.20;6.50;;;22.10;99.90;;;;;;5105755;28;20210;-81
2021/09/22 12:42:01;;;;;;;9.40;7.00;;;22.30;99.90;;;;;;5067280;28;20178;-81
2021/09/22 12:44:28;;;;;;;7.47;5.07;;;22.40;99.90;;;;;;5097424;28;20167;-81